Time;durP1;ratioP1;P1;durP2;ratioP2;P2;SDS_P1;SDS_P2;PMS_P1;PMS_P2;Temp;Humidity;BMP_temperature;BMP_pressure;BME280_temperature;BME280_humidity;BME280_pressure;Samples;Min_cycle;Max_cycle;Signal;HPM_P1;HPM_P2
2023/09/29 00:01:58;;;;;;;21.60;9.38;;;15.20;99.90;;;;;;4977152;28;20034;-72
2023/09/29 00:04:25;;;;;;;23.15;10.23;;;15.20;99.90;;;;;;4986481;28;20066;-72
2023/09/29 00:06:51;;;;;;;19.38;10.05;;;15.20;99.90;;;;;;5001847;28;20409;-71
2023/09/29 00:09:17;;;;;;;19.90;10.02;;;15.10;99.90;;;;;;4967286;28;20041;-72
2023/09/29 00:11:43;;;;;;;20.13;9.32;;;15.10;99.90;;;;;;5001038;28;20050;-72
2023/09/29 00:14:08;;;;;;;20.70;10.18;;;15.10;99.90;;;;;;5000425;28;20470;-72
2023/09/29 00:16:34;;;;;;;16.73;8.85;;;15.20;99.90;;;;;;4984553;28;20677;-72
2023/09/29 00:19:00;;;;;;;17.70;8.90;;;15.20;99.90;;;;;;4966676;28;20390;-72
2023/09/29 00:21:25;;;;;;;19.25;8.60;;;15.20;99.90;;;;;;4982311;28;20046;-72
2023/09/29 00:23:51;;;;;;;23.00;9.77;;;15.20;99.90;;;;;;4981181;28;20516;-72
2023/09/29 00:26:17;;;;;;;17.13;9.30;;;15.20;99.90;;;;;;4982616;28;20034;-72
2023/09/29 00:28:44;;;;;;;18.63;9.23;;;15.30;99.90;;;;;;4982750;28;20397;-72
2023/09/29 00:31:10;;;;;;;20.70;8.85;;;15.30;99.90;;;;;;4982324;28;20465;-72
2023/09/29 00:33:36;;;;;;;22.95;9.77;;;15.30;99.90;;;;;;4957930;28;20049;-72
2023/09/29 00:36:01;;;;;;;18.83;8.88;;;15.30;99.90;;;;;;4974796;28;20408;-71
2023/09/29 00:38:27;;;;;;;20.85;9.57;;;15.30;99.90;;;;;;5008236;28;20084;-72
2023/09/29 00:40:53;;;;;;;16.58;8.90;;;15.30;99.90;;;;;;5012111;28;20408;-72
2023/09/29 00:43:18;;;;;;;19.15;9.27;;;15.30;99.90;;;;;;4993078;28;20053;-72
2023/09/29 00:45:47;;;;;;;19.60;10.07;;;15.40;99.90;;;;;;4998278;28;20101;-71
2023/09/29 00:48:14;;;;;;;20.85;9.32;;;15.40;99.90;;;;;;4996632;28;20041;-72
2023/09/29 00:50:41;;;;;;;17.20;9.20;;;15.40;99.90;;;;;;5013867;28;20249;-71
2023/09/29 00:53:13;;;;;;;18.50;9.95;;;15.40;99.90;;;;;;4994027;28;20034;-72
2023/09/29 00:55:41;;;;;;;18.10;10.45;;;15.40;99.90;;;;;;5017561;28;20386;-71
2023/09/29 00:58:08;;;;;;;28.35;10.80;;;15.40;99.90;;;;;;4975252;28;20069;-72
2023/09/29 01:00:36;;;;;;;22.95;10.13;;;15.40;99.90;;;;;;5007940;28;20494;-72
2023/09/29 01:03:05;;;;;;;18.95;9.98;;;15.40;99.90;;;;;;4990800;28;20117;-71
2023/09/29 01:05:39;;;;;;;17.23;9.15;;;15.40;99.90;;;;;;5004759;28;20038;-71
2023/09/29 01:08:09;;;;;;;20.13;10.88;;;15.40;99.90;;;;;;4988542;28;20440;-71
2023/09/29 01:10:38;;;;;;;19.75;9.27;;;15.40;99.90;;;;;;5003448;28;20042;-71
2023/09/29 01:13:05;;;;;;;17.88;9.70;;;15.50;99.90;;;;;;4992991;28;20113;-71
2023/09/29 01:15:34;;;;;;;18.17;9.60;;;15.40;99.90;;;;;;5013135;28;20049;-71
2023/09/29 01:18:02;;;;;;;19.15;10.40;;;15.40;99.90;;;;;;4997283;28;20042;-71
2023/09/29 01:20:31;;;;;;;25.23;10.23;;;15.20;99.90;;;;;;5009892;28;20408;-72
2023/09/29 01:23:02;;;;;;;19.55;9.90;;;15.40;99.90;;;;;;4993408;28;20485;-71
2023/09/29 01:25:28;;;;;;;24.05;9.52;;;15.40;99.90;;;;;;5001596;28;20037;-71
2023/09/29 01:27:54;;;;;;;21.27;10.27;;;15.40;99.90;;;;;;4997337;28;20037;-72
2023/09/29 01:30:21;;;;;;;23.23;10.07;;;15.40;99.90;;;;;;4988590;28;20050;-71
2023/09/29 01:32:48;;;;;;;21.38;9.65;;;15.30;99.90;;;;;;5006876;28;20105;-71
2023/09/29 01:35:21;;;;;;;26.98;9.65;;;15.40;99.90;;;;;;5003415;28;20041;-71
2023/09/29 01:37:48;;;;;;;23.08;9.68;;;15.40;99.90;;;;;;5007611;28;20061;-71
2023/09/29 01:40:15;;;;;;;22.17;9.90;;;15.40;99.90;;;;;;5002475;28;20046;-71
2023/09/29 01:42:42;;;;;;;21.58;9.85;;;15.40;99.90;;;;;;5001079;28;20038;-71
2023/09/29 01:45:15;;;;;;;18.45;10.05;;;15.40;99.90;;;;;;5001863;28;20180;-71
2023/09/29 01:47:48;;;;;;;22.88;10.45;;;15.40;99.90;;;;;;4993763;28;20042;-71
2023/09/29 01:50:16;;;;;;;21.38;10.25;;;15.40;99.90;;;;;;4984174;28;20409;-71
2023/09/29 01:52:43;;;;;;;23.13;11.13;;;15.40;99.90;;;;;;4990556;28;20142;-71
2023/09/29 01:55:12;;;;;;;24.95;11.27;;;15.50;99.90;;;;;;4982218;28;20175;-71
2023/09/29 01:57:38;;;;;;;24.90;12.18;;;15.40;99.90;;;;;;4988666;28;20064;-71
2023/09/29 02:00:05;;;;;;;31.92;13.15;;;15.60;99.90;;;;;;4973438;28;20449;-71
2023/09/29 02:02:31;;;;;;;25.50;12.85;;;15.50;99.90;;;;;;5003690;28;20128;-72
2023/09/29 02:04:57;;;;;;;27.05;13.38;;;15.50;99.90;;;;;;4975557;28;20089;-72
2023/09/29 02:07:24;;;;;;;27.75;13.88;;;15.50;99.90;;;;;;5005542;28;20050;-71
2023/09/29 02:09:51;;;;;;;20.63;13.35;;;15.50;99.90;;;;;;4988655;28;20038;-71
2023/09/29 02:12:17;;;;;;;21.05;13.57;;;15.50;99.90;;;;;;4985801;28;20463;-71
2023/09/29 02:14:43;;;;;;;25.48;13.73;;;15.50;99.90;;;;;;4997292;28;20060;-71
2023/09/29 02:17:10;;;;;;;24.92;15.38;;;15.50;99.90;;;;;;5001043;28;20034;-71
2023/09/29 02:19:35;;;;;;;28.58;14.82;;;15.50;99.90;;;;;;5003690;28;20038;-71
2023/09/29 02:22:03;;;;;;;22.42;13.57;;;15.50;99.90;;;;;;4993701;28;20124;-71
2023/09/29 02:24:29;;;;;;;23.83;14.85;;;15.50;99.90;;;;;;4969169;28;20042;-71
2023/09/29 02:26:55;;;;;;;22.70;14.75;;;15.50;99.90;;;;;;5001070;28;20046;-72
2023/09/29 02:29:21;;;;;;;21.75;13.95;;;15.50;99.90;;;;;;4967450;28;20088;-73
2023/09/29 02:31:46;;;;;;;26.38;13.63;;;15.50;99.90;;;;;;5011313;28;20571;-72
2023/09/29 02:34:15;;;;;;;22.33;14.80;;;15.50;99.90;;;;;;4984383;28;20041;-73
2023/09/29 02:36:40;;;;;;;23.60;14.00;;;15.50;99.90;;;;;;4990116;28;20037;-73
2023/09/29 02:39:08;;;;;;;25.40;14.63;;;15.50;99.90;;;;;;5006475;28;20455;-72
2023/09/29 02:41:35;;;;;;;27.92;16.35;;;15.60;99.90;;;;;;4973326;28;20121;-73
2023/09/29 02:44:01;;;;;;;26.65;15.20;;;15.50;99.90;;;;;;4986645;28;20049;-72
2023/09/29 02:46:27;;;;;;;24.02;15.73;;;15.60;99.90;;;;;;4990364;28;20034;-73
2023/09/29 02:48:53;;;;;;;26.52;15.35;;;15.60;99.90;;;;;;4979374;28;20041;-73
2023/09/29 02:51:19;;;;;;;27.23;16.23;;;15.50;99.90;;;;;;4998986;28;20405;-72
2023/09/29 02:53:49;;;;;;;26.60;15.68;;;15.60;99.90;;;;;;4999639;28;20393;-72
2023/09/29 02:56:16;;;;;;;26.65;16.85;;;15.60;99.90;;;;;;4991775;28;20042;-72
2023/09/29 02:58:43;;;;;;;27.05;16.20;;;15.60;99.90;;;;;;5000515;28;20486;-72
2023/09/29 03:01:11;;;;;;;20.27;14.77;;;15.60;99.90;;;;;;4997150;28;20520;-72
2023/09/29 03:03:44;;;;;;;24.88;15.25;;;15.60;99.90;;;;;;4971429;28;20049;-72
2023/09/29 03:06:18;;;;;;;24.55;15.52;;;15.60;99.90;;;;;;4993632;28;20049;-72
2023/09/29 03:08:44;;;;;;;27.88;16.27;;;15.60;99.90;;;;;;4995857;28;20029;-72
2023/09/29 03:11:12;;;;;;;24.83;16.65;;;15.60;99.90;;;;;;4982457;28;20049;-72
2023/09/29 03:13:39;;;;;;;28.30;16.10;;;15.60;99.90;;;;;;4997816;28;20046;-72
2023/09/29 03:16:07;;;;;;;26.85;15.90;;;15.60;99.90;;;;;;4964062;28;20640;-72
2023/09/29 03:18:37;;;;;;;23.58;16.23;;;15.60;99.90;;;;;;4977327;28;20108;-72
2023/09/29 03:21:04;;;;;;;24.98;16.67;;;15.60;99.90;;;;;;4978463;28;20042;-72
2023/09/29 03:23:34;;;;;;;25.08;16.02;;;15.70;99.90;;;;;;4982842;28;20089;-72
2023/09/29 03:26:00;;;;;;;30.77;16.90;;;15.70;99.90;;;;;;4995257;28;20042;-72
2023/09/29 03:28:25;;;;;;;22.25;16.23;;;15.70;99.90;;;;;;4981310;28;20512;-72
2023/09/29 03:30:51;;;;;;;29.42;16.75;;;15.70;99.90;;;;;;4964789;28;20058;-73
2023/09/29 03:33:17;;;;;;;29.83;16.15;;;15.70;99.90;;;;;;4998895;28;20070;-72
2023/09/29 03:35:45;;;;;;;25.88;16.65;;;15.70;99.90;;;;;;4980633;28;20050;-72
2023/09/29 03:38:11;;;;;;;27.27;16.55;;;15.70;99.90;;;;;;4980492;28;20049;-72
2023/09/29 03:40:37;;;;;;;26.75;16.27;;;15.70;99.90;;;;;;4986916;28;20050;-72
2023/09/29 03:43:03;;;;;;;30.63;17.65;;;15.70;99.90;;;;;;5008674;28;20046;-72
2023/09/29 03:45:29;;;;;;;24.55;16.30;;;15.70;99.90;;;;;;4976237;28;20489;-72
2023/09/29 03:47:54;;;;;;;24.92;17.02;;;15.70;99.90;;;;;;5009542;28;20473;-72
2023/09/29 03:50:20;;;;;;;21.15;16.77;;;15.80;99.90;;;;;;4973669;28;20416;-73
2023/09/29 03:52:46;;;;;;;23.52;17.17;;;15.80;99.90;;;;;;4990703;28;20065;-72
2023/09/29 03:55:14;;;;;;;29.25;18.17;;;15.80;99.90;;;;;;5002068;28;20057;-72
2023/09/29 03:57:41;;;;;;;29.73;17.58;;;15.80;99.90;;;;;;5007826;28;20121;-73
2023/09/29 04:00:11;;;;;;;25.48;18.85;;;15.80;99.90;;;;;;4992514;28;20050;-72
2023/09/29 04:02:36;;;;;;;22.63;18.30;;;15.80;99.90;;;;;;4982383;28;20045;-72
2023/09/29 04:05:02;;;;;;;26.48;18.35;;;15.80;99.90;;;;;;4953228;28;20045;-72
2023/09/29 04:07:28;;;;;;;23.50;17.52;;;15.80;99.90;;;;;;4988288;28;20038;-72
2023/09/29 04:09:53;;;;;;;25.67;15.85;;;15.80;99.90;;;;;;4963072;28;20046;-73
2023/09/29 04:12:19;;;;;;;21.52;17.63;;;15.80;99.90;;;;;;4988207;28;20034;-72
2023/09/29 04:14:45;;;;;;;23.80;17.77;;;15.80;99.90;;;;;;5009210;28;20050;-72
2023/09/29 04:17:10;;;;;;;25.08;16.58;;;15.80;99.90;;;;;;5009801;28;20532;-72
2023/09/29 04:19:38;;;;;;;25.20;15.40;;;15.80;99.90;;;;;;5007658;28;20038;-72
2023/09/29 04:22:03;;;;;;;27.02;16.60;;;15.80;99.90;;;;;;4997353;28;20042;-72
2023/09/29 04:24:30;;;;;;;24.95;16.90;;;15.80;99.90;;;;;;4978165;28;20409;-72
2023/09/29 04:26:56;;;;;;;26.63;16.90;;;15.80;99.90;;;;;;5013829;28;20125;-72
2023/09/29 04:29:22;;;;;;;29.08;16.67;;;15.80;99.90;;;;;;4980419;28;20029;-72
2023/09/29 04:31:47;;;;;;;26.20;17.30;;;15.80;99.90;;;;;;4996977;28;20100;-72
2023/09/29 04:34:13;;;;;;;22.10;16.10;;;15.80;99.90;;;;;;4987728;28;20044;-73
2023/09/29 04:36:40;;;;;;;25.48;17.95;;;15.80;99.90;;;;;;5011369;28;20125;-72
2023/09/29 04:39:06;;;;;;;27.17;16.73;;;15.80;99.90;;;;;;5000281;28;20128;-72
2023/09/29 04:41:32;;;;;;;28.33;18.08;;;15.90;99.90;;;;;;5003624;28;20137;-72
2023/09/29 04:43:57;;;;;;;26.73;17.40;;;15.90;99.90;;;;;;5002897;28;20042;-72
2023/09/29 04:46:23;;;;;;;26.55;18.13;;;15.90;99.90;;;;;;4992912;28;20057;-72
2023/09/29 04:48:53;;;;;;;30.88;18.70;;;15.90;99.90;;;;;;5008160;28;20112;-72
2023/09/29 04:51:18;;;;;;;22.77;18.33;;;15.90;99.90;;;;;;4997792;28;20030;-73
2023/09/29 04:53:45;;;;;;;23.52;17.30;;;15.90;99.90;;;;;;5012308;28;20575;-73
2023/09/29 04:56:11;;;;;;;22.75;16.70;;;15.90;99.90;;;;;;4988220;28;20049;-72
2023/09/29 04:58:37;;;;;;;25.85;17.75;;;15.90;99.90;;;;;;4999654;28;20042;-73
2023/09/29 05:01:03;;;;;;;24.13;18.08;;;15.90;99.90;;;;;;5006280;28;20464;-73
2023/09/29 05:03:28;;;;;;;25.73;17.52;;;15.90;99.90;;;;;;5000518;28;20412;-72
2023/09/29 05:05:54;;;;;;;25.52;17.85;;;15.90;99.90;;;;;;5003150;28;20041;-72
2023/09/29 05:08:20;;;;;;;27.60;17.90;;;15.90;99.90;;;;;;5003465;28;20049;-72
2023/09/29 05:10:45;;;;;;;21.02;16.60;;;15.90;99.90;;;;;;5013956;28;20492;-72
2023/09/29 05:13:11;;;;;;;24.73;16.33;;;15.90;99.90;;;;;;5006712;28;20481;-72
2023/09/29 05:15:37;;;;;;;23.70;16.08;;;15.90;99.90;;;;;;5002781;28;20034;-72
2023/09/29 05:18:03;;;;;;;24.95;17.20;;;15.90;99.90;;;;;;5011010;28;20572;-72
2023/09/29 05:20:29;;;;;;;25.38;15.73;;;15.90;99.90;;;;;;4990272;28;20065;-72
2023/09/29 05:22:55;;;;;;;21.15;15.55;;;15.90;99.90;;;;;;4984515;28;20038;-72
2023/09/29 05:25:20;;;;;;;24.08;15.93;;;15.90;99.90;;;;;;4996075;28;20385;-72
2023/09/29 05:27:46;;;;;;;24.48;15.68;;;15.90;99.90;;;;;;4972159;28;20034;-72
2023/09/29 05:30:12;;;;;;;22.98;15.82;;;16.00;99.90;;;;;;4987763;28;20093;-72
2023/09/29 05:32:38;;;;;;;23.67;16.15;;;15.90;99.90;;;;;;5008281;28;20119;-72
2023/09/29 05:35:04;;;;;;;22.38;15.02;;;16.00;99.90;;;;;;4999471;28;20034;-72
2023/09/29 05:37:30;;;;;;;22.42;15.23;;;16.00;99.90;;;;;;4994118;28;20053;-72
2023/09/29 05:39:56;;;;;;;21.73;15.15;;;16.00;99.90;;;;;;4967741;28;20050;-72
2023/09/29 05:42:21;;;;;;;20.10;14.88;;;16.00;99.90;;;;;;5007313;28;20461;-72
2023/09/29 05:44:47;;;;;;;24.67;14.90;;;16.00;99.90;;;;;;4989562;28;20034;-72
2023/09/29 05:47:13;;;;;;;19.55;13.93;;;16.10;99.90;;;;;;5009948;28;20139;-72
2023/09/29 05:49:39;;;;;;;22.60;14.20;;;16.10;99.90;;;;;;5008282;28;20045;-72
2023/09/29 05:52:05;;;;;;;19.33;14.60;;;16.10;99.90;;;;;;4988634;28;20034;-72
2023/09/29 05:54:30;;;;;;;21.00;14.52;;;16.10;99.90;;;;;;5004701;28;20077;-72
2023/09/29 05:56:56;;;;;;;22.15;14.75;;;16.10;99.90;;;;;;5012509;28;20053;-72
2023/09/29 05:59:22;;;;;;;18.90;13.43;;;16.10;99.90;;;;;;5005587;28;20038;-72
2023/09/29 06:01:47;;;;;;;22.17;13.93;;;16.10;99.90;;;;;;4988217;28;20038;-73
2023/09/29 06:04:13;;;;;;;16.45;13.18;;;16.10;99.90;;;;;;4949482;28;20039;-72
2023/09/29 06:06:39;;;;;;;18.42;13.05;;;16.10;99.90;;;;;;5001264;28;20037;-72
2023/09/29 06:09:04;;;;;;;18.08;13.02;;;16.20;99.90;;;;;;4977412;28;20066;-72
2023/09/29 06:11:30;;;;;;;17.33;12.93;;;16.20;99.90;;;;;;5005015;28;20124;-72
2023/09/29 06:13:57;;;;;;;16.38;11.90;;;16.20;99.90;;;;;;4995089;28;20052;-72
2023/09/29 06:16:23;;;;;;;14.35;11.68;;;16.20;99.90;;;;;;4973834;28;20041;-72
2023/09/29 06:18:49;;;;;;;15.32;11.35;;;16.20;99.90;;;;;;4990199;28;20045;-73
2023/09/29 06:21:16;;;;;;;16.05;11.18;;;16.20;99.90;;;;;;5001744;28;20045;-72
2023/09/29 06:23:41;;;;;;;13.27;11.07;;;16.20;99.90;;;;;;5010213;28;20037;-72
2023/09/29 06:26:07;;;;;;;19.73;11.02;;;16.20;99.90;;;;;;4988938;28;20042;-72
2023/09/29 06:28:33;;;;;;;13.95;10.57;;;16.30;99.90;;;;;;4985550;28;20069;-72
2023/09/29 06:30:58;;;;;;;16.40;10.05;;;16.30;99.90;;;;;;4973180;28;20137;-72
2023/09/29 06:33:25;;;;;;;13.48;9.50;;;16.30;99.90;;;;;;5003179;28;20092;-72
2023/09/29 06:35:52;;;;;;;14.10;9.63;;;16.30;99.90;;;;;;4979914;28;20037;-72
2023/09/29 06:38:18;;;;;;;15.07;9.88;;;16.30;99.90;;;;;;5004008;28;20377;-72
2023/09/29 06:40:44;;;;;;;13.15;8.98;;;16.30;99.90;;;;;;4967177;28;20042;-72
2023/09/29 06:43:10;;;;;;;14.73;9.13;;;16.40;99.90;;;;;;4990396;28;20049;-72
2023/09/29 06:45:36;;;;;;;13.25;8.65;;;16.40;99.90;;;;;;4985018;28;20046;-72
2023/09/29 06:48:04;;;;;;;13.98;8.73;;;16.40;99.90;;;;;;5010172;28;20037;-72
2023/09/29 06:50:30;;;;;;;11.27;8.43;;;16.40;99.90;;;;;;4995443;28;20422;-72
2023/09/29 06:52:56;;;;;;;14.45;8.60;;;16.50;99.90;;;;;;5000529;28;20054;-72
2023/09/29 06:55:21;;;;;;;11.57;7.85;;;16.50;99.90;;;;;;4969968;28;20488;-73
2023/09/29 06:57:48;;;;;;;11.85;8.05;;;16.50;99.90;;;;;;4988458;28;20626;-73
2023/09/29 07:00:14;;;;;;;9.93;7.10;;;16.50;99.90;;;;;;4971679;28;20029;-74
2023/09/29 07:02:39;;;;;;;13.15;7.72;;;16.50;99.90;;;;;;4984555;28;20133;-74
2023/09/29 07:05:05;;;;;;;11.77;6.75;;;16.50;99.90;;;;;;4994676;28;20128;-75
2023/09/29 07:07:31;;;;;;;11.52;7.43;;;16.50;99.90;;;;;;4990437;28;20072;-75
2023/09/29 07:09:57;;;;;;;11.75;6.55;;;16.50;99.90;;;;;;4962767;28;20156;-73
2023/09/29 07:12:23;;;;;;;10.20;6.82;;;16.60;99.90;;;;;;4987388;28;20556;-73
2023/09/29 07:14:51;;;;;;;12.95;6.78;;;16.60;99.90;;;;;;4984360;28;20507;-74
2023/09/29 07:17:17;;;;;;;9.45;6.47;;;16.60;99.90;;;;;;4987822;28;20076;-75
2023/09/29 07:19:43;;;;;;;10.85;6.47;;;16.60;99.90;;;;;;4967411;28;20493;-73
2023/09/29 07:22:09;;;;;;;9.07;6.63;;;16.60;99.90;;;;;;4955700;28;20466;-73
2023/09/29 07:24:34;;;;;;;8.52;6.47;;;16.60;99.90;;;;;;4975150;28;20088;-73
2023/09/29 07:27:00;;;;;;;12.15;6.25;;;16.60;99.90;;;;;;4959433;28;20535;-73
2023/09/29 07:29:26;;;;;;;7.57;5.72;;;16.70;99.90;;;;;;4967119;28;20044;-73
2023/09/29 07:31:51;;;;;;;13.38;6.45;;;16.70;99.90;;;;;;4943065;28;20057;-73
2023/09/29 07:34:17;;;;;;;8.27;6.22;;;16.70;99.90;;;;;;4963033;28;20042;-73
2023/09/29 07:36:48;;;;;;;11.07;6.60;;;16.80;99.90;;;;;;4981050;28;20069;-73
2023/09/29 07:39:15;;;;;;;13.07;6.70;;;16.80;99.90;;;;;;4966579;28;20034;-73
2023/09/29 07:41:41;;;;;;;10.95;6.43;;;16.90;99.90;;;;;;4967219;28;20736;-73
2023/09/29 07:44:08;;;;;;;9.10;7.15;;;16.70;99.90;;;;;;4985926;28;20131;-73
2023/09/29 07:46:35;;;;;;;8.32;6.43;;;16.90;99.90;;;;;;4969339;28;20046;-73
2023/09/29 07:49:02;;;;;;;11.27;6.50;;;17.00;99.90;;;;;;4966907;28;20041;-73
2023/09/29 07:51:29;;;;;;;9.80;6.72;;;17.10;99.90;;;;;;4981815;28;20070;-72
2023/09/29 07:53:56;;;;;;;10.68;6.20;;;17.20;99.90;;;;;;4966800;28;20497;-72
2023/09/29 07:56:22;;;;;;;8.98;6.20;;;17.30;99.90;;;;;;4965104;28;20532;-72
2023/09/29 07:58:48;;;;;;;8.63;6.78;;;17.40;99.90;;;;;;4965220;28;20047;-72
2023/09/29 08:01:14;;;;;;;8.23;6.10;;;17.40;99.90;;;;;;4966500;28;20050;-72
2023/09/29 08:03:41;;;;;;;9.35;6.30;;;17.40;99.90;;;;;;4969255;28;20412;-72
2023/09/29 08:06:08;;;;;;;10.57;7.07;;;17.50;99.90;;;;;;4966096;28;21053;-72
2023/09/29 08:08:35;;;;;;;10.45;6.93;;;17.50;99.90;;;;;;4966016;28;20035;-72
2023/09/29 08:11:01;;;;;;;10.80;6.88;;;17.50;99.90;;;;;;4966446;28;20439;-72
2023/09/29 08:13:27;;;;;;;11.80;6.43;;;17.50;99.90;;;;;;4964889;28;20157;-72
2023/09/29 08:15:53;;;;;;;11.23;6.97;;;17.50;99.90;;;;;;4984299;28;20117;-72
2023/09/29 08:18:19;;;;;;;13.15;6.38;;;17.50;99.90;;;;;;4956670;28;20034;-72
2023/09/29 08:20:45;;;;;;;12.27;7.25;;;17.60;99.90;;;;;;4964273;28;20038;-73
2023/09/29 08:23:11;;;;;;;12.45;7.13;;;17.70;99.90;;;;;;4966787;28;21037;-72
2023/09/29 08:25:38;;;;;;;9.70;7.05;;;17.70;99.90;;;;;;4961508;28;20046;-72
2023/09/29 08:28:05;;;;;;;13.90;7.20;;;17.80;99.90;;;;;;4966477;28;20536;-72
2023/09/29 08:30:32;;;;;;;14.10;7.38;;;17.80;99.90;;;;;;4981620;28;20544;-72
2023/09/29 08:32:57;;;;;;;15.63;6.65;;;17.90;99.90;;;;;;4982021;28;20074;-72
2023/09/29 08:35:23;;;;;;;9.38;6.68;;;18.00;99.90;;;;;;4963235;28;20126;-72
2023/09/29 08:37:49;;;;;;;9.85;6.50;;;18.00;99.90;;;;;;4963662;28;20153;-74
2023/09/29 08:40:19;;;;;;;13.23;6.50;;;18.10;99.90;;;;;;4962226;28;20089;-73
2023/09/29 08:42:50;;;;;;;9.65;6.25;;;18.30;99.90;;;;;;4963516;28;20129;-74
2023/09/29 08:45:19;;;;;;;10.05;6.53;;;18.50;99.90;;;;;;4943125;28;20132;-74
2023/09/29 08:47:52;;;;;;;7.95;5.95;;;18.60;99.90;;;;;;4968346;28;20038;-73
2023/09/29 08:50:18;;;;;;;6.63;5.53;;;18.60;99.90;;;;;;4963707;28;20093;-73
2023/09/29 08:52:45;;;;;;;9.50;6.03;;;18.70;99.90;;;;;;4956244;28;20073;-73
2023/09/29 08:55:14;;;;;;;8.88;5.97;;;18.90;99.90;;;;;;4973105;28;20089;-73
2023/09/29 08:57:43;;;;;;;8.75;5.00;;;19.10;99.90;;;;;;4961346;28;20077;-74
2023/09/29 09:00:12;;;;;;;9.48;4.97;;;19.20;99.90;;;;;;4984291;28;20125;-73
2023/09/29 09:02:41;;;;;;;8.02;5.45;;;19.30;99.90;;;;;;4983003;28;20043;-73
2023/09/29 09:05:10;;;;;;;7.60;5.25;;;19.40;99.90;;;;;;4985385;28;20081;-73
2023/09/29 09:07:38;;;;;;;7.65;5.28;;;19.50;99.90;;;;;;4959956;28;20038;-73
2023/09/29 09:10:04;;;;;;;10.88;4.90;;;19.60;99.90;;;;;;4986213;28;20108;-73
2023/09/29 09:12:35;;;;;;;6.32;4.43;;;19.80;99.90;;;;;;4960049;28;20053;-73
2023/09/29 09:15:03;;;;;;;8.15;4.82;;;19.80;99.90;;;;;;4967876;28;20084;-73
2023/09/29 09:17:29;;;;;;;7.95;4.40;;;20.00;99.90;;;;;;4969017;28;20048;-73
2023/09/29 09:19:55;;;;;;;8.43;4.10;;;20.00;99.90;;;;;;4943936;28;20044;-73
2023/09/29 09:22:24;;;;;;;7.13;4.25;;;20.10;99.90;;;;;;4970753;28;20034;-73
2023/09/29 09:24:56;;;;;;;6.10;4.20;;;20.20;99.90;;;;;;4986915;28;20034;-73
2023/09/29 09:27:22;;;;;;;7.53;3.78;;;20.20;99.90;;;;;;4984550;28;20046;-73
2023/09/29 09:29:47;;;;;;;7.40;3.85;;;20.20;99.90;;;;;;4967102;28;20986;-73
2023/09/29 09:32:14;;;;;;;7.35;4.50;;;20.20;99.90;;;;;;4983959;28;20081;-74
2023/09/29 09:34:41;;;;;;;4.78;3.72;;;20.10;99.90;;;;;;4984258;28;20072;-74
2023/09/29 09:37:08;;;;;;;5.68;3.70;;;20.10;99.90;;;;;;4992836;28;20037;-74
2023/09/29 09:39:34;;;;;;;9.57;3.85;;;20.20;99.90;;;;;;5005771;28;20501;-74
2023/09/29 09:42:06;;;;;;;5.65;3.40;;;20.20;99.90;;;;;;4992311;28;20118;-74
2023/09/29 09:44:32;;;;;;;6.88;3.90;;;20.40;99.90;;;;;;5004939;28;20065;-74
2023/09/29 09:47:03;;;;;;;4.68;3.47;;;20.40;99.90;;;;;;4968880;28;20143;-74
2023/09/29 09:49:50;;;;;;;5.25;3.35;;;20.50;99.90;;;;;;4993567;28;20046;-74
2023/09/29 09:52:29;;;;;;;5.80;3.35;;;20.50;99.90;;;;;;5007003;28;20057;-74
2023/09/29 09:55:11;;;;;;;6.50;3.70;;;20.60;99.90;;;;;;4984802;28;20034;-74
2023/09/29 09:57:38;;;;;;;5.95;3.90;;;20.60;99.90;;;;;;4990434;28;20048;-74
2023/09/29 10:00:12;;;;;;;4.03;3.42;;;20.60;99.90;;;;;;5001121;28;20038;-74
2023/09/29 10:02:51;;;;;;;5.80;3.90;;;20.70;99.90;;;;;;4999865;28;20037;-74
2023/09/29 10:05:30;;;;;;;6.35;3.83;;;20.90;99.90;;;;;;5006624;28;20038;-74
2023/09/29 10:08:01;;;;;;;11.15;4.03;;;20.90;99.90;;;;;;4996680;28;20397;-74
2023/09/29 10:10:33;;;;;;;8.68;4.00;;;21.00;99.90;;;;;;5008866;28;20073;-74
2023/09/29 10:13:00;;;;;;;7.93;3.78;;;21.10;99.90;;;;;;4995959;28;20040;-74
2023/09/29 10:15:29;;;;;;;5.90;3.70;;;21.10;99.90;;;;;;4988082;28;20034;-74
2023/09/29 10:18:17;;;;;;;7.78;3.95;;;21.10;99.90;;;;;;4993198;28;20050;-74
2023/09/29 10:20:43;;;;;;;5.13;3.45;;;21.10;99.90;;;;;;5006104;28;20045;-74
2023/09/29 10:23:15;;;;;;;5.50;3.80;;;21.10;99.90;;;;;;4982153;28;20038;-75
2023/09/29 10:25:56;;;;;;;5.53;3.43;;;21.20;99.90;;;;;;4993446;28;20044;-74
2023/09/29 10:28:33;;;;;;;6.75;4.03;;;21.20;99.90;;;;;;4995871;28;20034;-74
2023/09/29 10:31:27;;;;;;;5.05;4.00;;;21.10;99.90;;;;;;4999462;28;20038;-74
2023/09/29 10:33:55;;;;;;;5.10;3.63;;;21.20;99.90;;;;;;4993539;28;20042;-74
2023/09/29 10:36:23;;;;;;;6.28;3.70;;;21.20;99.90;;;;;;4996030;28;20468;-74
2023/09/29 10:38:49;;;;;;;6.60;3.60;;;21.30;99.90;;;;;;4994297;28;20046;-74
2023/09/29 10:41:15;;;;;;;5.60;3.55;;;21.30;99.90;;;;;;5010627;28;20052;-74
2023/09/29 10:43:43;;;;;;;6.60;3.50;;;21.40;99.90;;;;;;4986213;28;20473;-74
2023/09/29 10:46:08;;;;;;;4.95;3.65;;;21.40;99.90;;;;;;5006348;28;20162;-74
2023/09/29 10:48:43;;;;;;;5.47;3.72;;;21.30;99.90;;;;;;4981486;28;20039;-74
2023/09/29 10:51:10;;;;;;;9.18;3.75;;;21.30;99.90;;;;;;4992140;28;20033;-74
2023/09/29 10:53:36;;;;;;;6.90;3.55;;;21.20;99.90;;;;;;4980175;28;20056;-74
2023/09/29 10:56:03;;;;;;;5.97;3.97;;;21.10;99.90;;;;;;4991252;28;20504;-74
2023/09/29 10:58:37;;;;;;;4.80;3.42;;;21.00;99.90;;;;;;5004230;28;20042;-74
2023/09/29 11:01:03;;;;;;;6.55;3.50;;;20.90;99.90;;;;;;5006019;28;20069;-74
2023/09/29 11:03:30;;;;;;;8.20;4.43;;;20.80;99.90;;;;;;4992193;28;20076;-74
2023/09/29 11:05:58;;;;;;;5.15;3.80;;;20.80;99.90;;;;;;4973891;28;20037;-74
2023/09/29 11:08:34;;;;;;;6.55;3.90;;;20.80;99.90;;;;;;4997857;28;20037;-75
2023/09/29 11:11:04;;;;;;;8.35;4.32;;;20.80;99.90;;;;;;5009561;28;20041;-74
2023/09/29 11:13:31;;;;;;;6.10;4.05;;;20.80;99.90;;;;;;4980427;28;20393;-74
2023/09/29 11:15:58;;;;;;;6.00;4.03;;;20.90;99.90;;;;;;4974186;28;20057;-74
2023/09/29 11:18:34;;;;;;;5.72;4.03;;;20.90;99.90;;;;;;4977737;28;20519;-74
2023/09/29 11:21:09;;;;;;;8.40;4.22;;;21.00;99.90;;;;;;5004767;28;20042;-74
2023/09/29 11:23:44;;;;;;;8.30;4.57;;;21.00;99.90;;;;;;4960482;28;20034;-74
2023/09/29 11:26:11;;;;;;;7.10;4.22;;;21.00;99.90;;;;;;4985813;28;20096;-74
2023/09/29 11:28:43;;;;;;;5.22;3.90;;;21.00;99.90;;;;;;4990463;28;20500;-74
2023/09/29 11:31:12;;;;;;;5.85;4.03;;;21.00;99.90;;;;;;5004172;28;20046;-74
2023/09/29 11:33:39;;;;;;;5.43;3.85;;;21.00;99.90;;;;;;4992026;28;20041;-74
2023/09/29 11:36:19;;;;;;;6.03;4.20;;;21.00;99.90;;;;;;5011143;28;20099;-74
2023/09/29 11:38:45;;;;;;;8.60;4.45;;;21.10;99.90;;;;;;4997102;28;20073;-74
2023/09/29 11:41:13;;;;;;;7.85;4.63;;;21.10;99.90;;;;;;5000934;28;20053;-74
2023/09/29 11:43:42;;;;;;;8.52;4.70;;;21.10;99.90;;;;;;4993363;28;20129;-74
2023/09/29 11:46:08;;;;;;;7.68;4.10;;;21.10;99.90;;;;;;4998474;28;20121;-74
2023/09/29 11:48:35;;;;;;;7.95;4.40;;;21.10;99.90;;;;;;4989252;28;20120;-74
2023/09/29 11:51:01;;;;;;;9.18;4.43;;;21.10;99.90;;;;;;4985523;28;20042;-74
2023/09/29 11:53:27;;;;;;;6.45;4.60;;;21.10;99.90;;;;;;4990975;28;20038;-74
2023/09/29 11:55:54;;;;;;;6.47;3.83;;;21.10;99.90;;;;;;4969280;28;20103;-74
2023/09/29 11:58:20;;;;;;;6.10;3.92;;;21.10;99.90;;;;;;4991830;28;20588;-74
2023/09/29 12:00:47;;;;;;;6.28;4.20;;;21.20;99.90;;;;;;4991081;28;20041;-74
2023/09/29 12:03:13;;;;;;;4.65;4.20;;;21.20;99.90;;;;;;5007027;28;20060;-74
2023/09/29 12:05:42;;;;;;;8.35;3.90;;;21.30;99.90;;;;;;5003660;28;20042;-74
2023/09/29 12:08:07;;;;;;;7.15;4.00;;;21.40;99.90;;;;;;5007094;28;20033;-74
2023/09/29 12:10:33;;;;;;;7.20;4.07;;;21.60;99.90;;;;;;5003981;28;20141;-74
2023/09/29 12:12:59;;;;;;;6.43;4.30;;;21.70;99.90;;;;;;5009644;28;20057;-74
2023/09/29 12:15:25;;;;;;;11.75;4.68;;;21.70;99.90;;;;;;4976073;28;20038;-74
2023/09/29 12:17:51;;;;;;;10.07;4.75;;;21.60;99.90;;;;;;5008467;28;20042;-74
2023/09/29 12:20:18;;;;;;;8.55;4.47;;;21.50;99.90;;;;;;4998806;28;20560;-74
2023/09/29 12:22:46;;;;;;;8.55;4.93;;;21.50;99.90;;;;;;4978814;28;20066;-74
2023/09/29 12:25:15;;;;;;;8.15;4.70;;;21.50;99.90;;;;;;4992406;28;20034;-74
2023/09/29 12:27:42;;;;;;;7.47;4.60;;;21.40;99.90;;;;;;4986862;28;20030;-74
2023/09/29 12:30:09;;;;;;;8.00;4.18;;;21.30;99.90;;;;;;4993041;28;20038;-74
2023/09/29 12:32:36;;;;;;;6.85;4.32;;;21.30;99.90;;;;;;4996635;28;20401;-74
2023/09/29 12:35:03;;;;;;;8.40;4.75;;;21.30;99.90;;;;;;4966275;28;20034;-74
2023/09/29 12:37:29;;;;;;;6.22;4.22;;;21.30;99.90;;;;;;4981633;28;20042;-74